Time;durP1;ratioP1;P1;durP2;ratioP2;P2;SDS_P1;SDS_P2;PMS_P1;PMS_P2;Temp;Humidity;BMP_temperature;BMP_pressure;BME280_temperature;BME280_humidity;BME280_pressure;Samples;Min_cycle;Max_cycle;Signal;HPM_P1;HPM_P2
2022/10/01 00:02:21;;;;;;;27.73;18.93;;;8.60;43.80;;;;;;5035125;28;20473;-60
2022/10/01 00:04:49;;;;;;;28.20;19.80;;;8.60;43.90;;;;;;5036795;28;20457;-59
2022/10/01 00:07:16;;;;;;;30.20;19.97;;;8.70;43.80;;;;;;5039341;28;20463;-60
2022/10/01 00:09:43;;;;;;;26.57;19.60;;;8.70;43.70;;;;;;5038621;28;20541;-60
2022/10/01 00:12:15;;;;;;;29.13;20.10;;;8.80;43.70;;;;;;5039549;28;20548;-59
2022/10/01 00:14:43;;;;;;;27.53;19.40;;;8.80;44.40;;;;;;5037615;28;20510;-59
2022/10/01 00:17:10;;;;;;;26.93;19.10;;;8.80;43.60;;;;;;5037360;28;20463;-60
2022/10/01 00:19:36;;;;;;;24.20;18.17;;;8.90;43.50;;;;;;5038075;28;20485;-60
2022/10/01 00:22:03;;;;;;;27.10;17.87;;;8.90;43.40;;;;;;5036326;28;20459;-60
2022/10/01 00:24:30;;;;;;;25.07;18.73;;;8.90;43.40;;;;;;5033853;28;20472;-59
2022/10/01 00:26:57;;;;;;;26.47;18.43;;;8.90;43.20;;;;;;5038781;28;21133;-60
2022/10/01 00:29:25;;;;;;;24.53;17.43;;;8.90;43.10;;;;;;5036407;28;20486;-59
2022/10/01 00:31:52;;;;;;;24.27;15.07;;;8.90;43.10;;;;;;5037552;28;20481;-59
2022/10/01 00:34:19;;;;;;;25.50;18.20;;;9.00;43.00;;;;;;5037180;28;20463;-60
2022/10/01 00:36:46;;;;;;;25.77;17.47;;;9.00;42.80;;;;;;5040868;28;20469;-60
2022/10/01 00:39:13;;;;;;;25.17;17.53;;;9.00;42.70;;;;;;5042131;28;20491;-60
2022/10/01 00:41:40;;;;;;;22.53;16.30;;;9.00;42.60;;;;;;5040542;28;20478;-60
2022/10/01 00:44:28;;;;;;;23.70;17.40;;;9.00;42.80;;;;;;5040660;28;20833;-59
2022/10/01 00:46:57;;;;;;;27.40;18.00;;;9.00;43.00;;;;;;5037959;28;20469;-60
2022/10/01 00:49:28;;;;;;;25.30;17.33;;;9.00;42.60;;;;;;5044289;28;20486;-60
2022/10/01 00:51:58;;;;;;;22.30;15.80;;;9.00;42.70;;;;;;5044005;28;20471;-60
2022/10/01 00:54:29;;;;;;;23.20;16.03;;;9.10;42.80;;;;;;5042625;28;20462;-59
2022/10/01 00:56:58;;;;;;;23.93;16.77;;;9.10;42.50;;;;;;5042431;28;20925;-60
2022/10/01 00:59:25;;;;;;;22.80;15.93;;;9.00;42.50;;;;;;5043263;28;20474;-60
2022/10/01 01:01:54;;;;;;;20.93;15.67;;;9.00;42.40;;;;;;5043409;28;20480;-59
2022/10/01 01:04:21;;;;;;;23.40;16.77;;;8.90;42.40;;;;;;5044189;28;20473;-59
2022/10/01 01:06:54;;;;;;;23.20;16.20;;;8.90;42.30;;;;;;5041652;28;20458;-59
2022/10/01 01:09:22;;;;;;;22.87;16.03;;;8.90;42.40;;;;;;5042640;28;20493;-59
2022/10/01 01:11:57;;;;;;;23.57;15.63;;;8.90;42.30;;;;;;5039217;28;20458;-59
2022/10/01 01:14:33;;;;;;;22.43;15.63;;;8.90;42.40;;;;;;5035952;28;20579;-59
2022/10/01 01:17:07;;;;;;;19.00;13.13;;;8.80;42.30;;;;;;5036502;28;20464;-59
2022/10/01 01:19:48;;;;;;;21.90;14.87;;;8.90;41.90;;;;;;5036588;28;20470;-60
2022/10/01 01:22:19;;;;;;;23.53;16.60;;;8.80;42.10;;;;;;5035895;28;21086;-60
2022/10/01 01:24:51;;;;;;;24.80;16.70;;;8.70;42.40;;;;;;5039922;28;20965;-60
2022/10/01 01:27:34;;;;;;;23.60;16.07;;;8.60;42.60;;;;;;5031076;28;20463;-60
2022/10/01 01:30:07;;;;;;;23.53;16.17;;;8.60;42.80;;;;;;5040443;28;20517;-59
2022/10/01 01:32:45;;;;;;;24.47;16.40;;;8.60;42.90;;;;;;5036972;28;20532;-60
2022/10/01 01:35:17;;;;;;;28.83;18.07;;;8.60;42.80;;;;;;5035607;28;21099;-59
2022/10/01 01:37:50;;;;;;;25.30;17.33;;;8.60;43.00;;;;;;5035149;28;20462;-59
2022/10/01 01:40:19;;;;;;;24.37;17.17;;;8.60;43.00;;;;;;5031922;28;20500;-60
2022/10/01 01:42:48;;;;;;;27.10;18.17;;;8.60;43.00;;;;;;5034038;28;20477;-61
2022/10/01 01:45:20;;;;;;;22.53;14.90;;;8.60;43.00;;;;;;5036303;28;20458;-59
2022/10/01 01:47:48;;;;;;;30.10;19.87;;;8.70;43.10;;;;;;5030494;28;20558;-60
2022/10/01 01:50:16;;;;;;;26.37;17.87;;;8.70;43.00;;;;;;5035308;28;21056;-60
2022/10/01 01:52:43;;;;;;;24.90;17.43;;;8.60;42.90;;;;;;5035441;28;20459;-60
2022/10/01 01:55:11;;;;;;;26.70;17.40;;;8.60;43.00;;;;;;5037371;28;20462;-60
2022/10/01 01:57:40;;;;;;;26.33;17.30;;;8.60;43.00;;;;;;5036636;28;20500;-60
2022/10/01 02:00:09;;;;;;;28.53;17.30;;;8.60;43.00;;;;;;5037774;28;20481;-60
2022/10/01 02:02:38;;;;;;;27.00;17.67;;;8.50;43.00;;;;;;5036678;28;20543;-60
2022/10/01 02:05:08;;;;;;;26.30;17.23;;;8.60;43.20;;;;;;5030089;28;20459;-60
2022/10/01 02:07:51;;;;;;;27.57;19.13;;;8.60;43.30;;;;;;5035626;28;20481;-61
2022/10/01 02:10:29;;;;;;;29.13;18.60;;;8.60;43.40;;;;;;5034174;28;20490;-60
2022/10/01 02:13:09;;;;;;;26.83;18.87;;;8.50;43.40;;;;;;5037913;28;20469;-60
2022/10/01 02:15:46;;;;;;;26.00;17.20;;;8.60;43.70;;;;;;5039509;28;20466;-60
2022/10/01 02:18:24;;;;;;;26.57;18.23;;;8.50;43.60;;;;;;5041202;28;20450;-60
2022/10/01 02:20:59;;;;;;;27.73;18.63;;;8.50;43.70;;;;;;5036110;28;20523;-61
2022/10/01 02:23:31;;;;;;;28.20;18.60;;;8.50;43.90;;;;;;5043130;28;20465;-60
2022/10/01 02:26:02;;;;;;;30.03;17.70;;;8.50;44.20;;;;;;5035115;28;20458;-61
2022/10/01 02:28:32;;;;;;;28.13;18.10;;;8.50;44.30;;;;;;5036724;28;20997;-60
2022/10/01 02:31:01;;;;;;;29.00;19.37;;;8.50;44.20;;;;;;5042394;28;21044;-60
2022/10/01 02:33:33;;;;;;;27.77;18.40;;;8.50;44.30;;;;;;5039356;28;21379;-60
2022/10/01 02:36:03;;;;;;;26.77;17.73;;;8.40;44.10;;;;;;5047049;28;20458;-60
2022/10/01 02:38:33;;;;;;;31.60;21.57;;;8.40;44.30;;;;;;5030269;28;20463;-60
2022/10/01 02:41:04;;;;;;;31.20;19.70;;;8.40;45.00;;;;;;5035840;28;20459;-60
2022/10/01 02:43:37;;;;;;;30.20;19.90;;;8.40;44.30;;;;;;5038873;28;20516;-61
2022/10/01 02:46:14;;;;;;;32.63;20.83;;;8.40;44.40;;;;;;5036072;28;20541;-60
2022/10/01 02:48:43;;;;;;;32.60;20.63;;;8.30;45.10;;;;;;5033330;28;20481;-60
2022/10/01 02:51:31;;;;;;;34.27;22.40;;;8.30;44.30;;;;;;5040612;28;20488;-60
2022/10/01 02:54:03;;;;;;;34.33;21.60;;;8.30;44.60;;;;;;5040767;28;20462;-60
2022/10/01 02:59:14;;;;;;;34.67;21.53;;;8.30;44.60;;;;;;5036226;28;20470;-61
2022/10/01 03:01:41;;;;;;;31.40;21.20;;;8.40;44.60;;;;;;5039761;28;20541;-60
2022/10/01 03:04:09;;;;;;;31.10;19.77;;;8.40;44.70;;;;;;5037709;28;20864;-60
2022/10/01 03:06:36;;;;;;;27.83;18.90;;;8.40;44.90;;;;;;5040130;28;20462;-60
2022/10/01 03:09:03;;;;;;;28.77;19.47;;;8.40;44.70;;;;;;5040482;28;20478;-60
2022/10/01 03:11:30;;;;;;;29.70;19.57;;;8.40;44.50;;;;;;5044710;28;20512;-61
2022/10/01 03:13:57;;;;;;;31.10;21.17;;;8.40;44.60;;;;;;5044474;28;20465;-60
2022/10/01 03:16:23;;;;;;;33.40;21.10;;;8.40;44.70;;;;;;5038252;28;20512;-61
2022/10/01 03:18:50;;;;;;;35.50;21.77;;;8.40;44.70;;;;;;5041447;28;20484;-60
2022/10/01 03:21:18;;;;;;;32.30;20.80;;;8.40;44.70;;;;;;5042823;28;20463;-60
2022/10/01 03:23:45;;;;;;;31.13;20.90;;;8.40;44.90;;;;;;5039547;28;20459;-60
2022/10/01 03:26:12;;;;;;;34.47;20.90;;;8.50;45.00;;;;;;5039140;28;20480;-60
2022/10/01 03:28:39;;;;;;;29.97;19.70;;;8.50;45.00;;;;;;5038378;28;20486;-61
2022/10/01 03:31:07;;;;;;;31.67;19.30;;;8.50;45.10;;;;;;5041605;28;20501;-60
2022/10/01 03:33:34;;;;;;;31.90;21.10;;;8.50;45.10;;;;;;5043588;28;20461;-60
2022/10/01 03:36:01;;;;;;;31.57;19.40;;;8.40;44.70;;;;;;5047141;28;20461;-60
2022/10/01 03:38:30;;;;;;;27.67;19.43;;;8.50;44.80;;;;;;5047555;28;20462;-61
2022/10/01 03:40:56;;;;;;;33.20;19.10;;;8.40;44.80;;;;;;5047224;28;21171;-60
2022/10/01 03:43:25;;;;;;;29.93;19.67;;;8.40;44.70;;;;;;5044756;28;20466;-61
2022/10/01 03:45:52;;;;;;;31.40;21.40;;;8.40;44.70;;;;;;5039690;28;20497;-60
2022/10/01 03:48:19;;;;;;;33.77;21.90;;;8.40;44.60;;;;;;5042260;28;20461;-61
2022/10/01 03:50:53;;;;;;;31.30;20.40;;;8.40;44.60;;;;;;5037532;28;20556;-61
2022/10/01 03:53:20;;;;;;;29.63;20.57;;;8.40;44.70;;;;;;5042835;28;20539;-60
2022/10/01 03:55:48;;;;;;;34.47;21.23;;;8.40;44.50;;;;;;5042291;28;20468;-61
2022/10/01 03:58:15;;;;;;;34.77;22.00;;;8.40;44.50;;;;;;5042531;28;20449;-61
2022/10/01 04:00:43;;;;;;;32.10;20.50;;;8.40;44.60;;;;;;5037044;28;20480;-61
2022/10/01 04:03:10;;;;;;;32.57;21.67;;;8.40;44.60;;;;;;5039338;28;20541;-61
2022/10/01 04:05:36;;;;;;;34.73;21.63;;;8.40;44.60;;;;;;5037236;28;20454;-60
2022/10/01 04:08:03;;;;;;;35.30;22.00;;;8.50;44.70;;;;;;5040042;28;20459;-61
2022/10/01 04:10:30;;;;;;;34.70;21.37;;;8.50;44.60;;;;;;5042968;28;21166;-61
2022/10/01 04:12:58;;;;;;;31.57;20.83;;;8.40;44.60;;;;;;5044697;28;20462;-60
2022/10/01 04:15:25;;;;;;;30.83;20.00;;;8.50;44.60;;;;;;5039181;28;21042;-61
2022/10/01 04:17:52;;;;;;;27.83;19.83;;;8.50;44.70;;;;;;5040872;28;20470;-61
2022/10/01 04:20:18;;;;;;;31.00;19.83;;;8.50;44.60;;;;;;5041196;28;20476;-61
2022/10/01 04:22:46;;;;;;;28.47;18.60;;;8.40;44.30;;;;;;5038372;28;20459;-61
2022/10/01 04:25:13;;;;;;;33.10;20.60;;;8.50;44.40;;;;;;5043306;28;20854;-60
2022/10/01 04:27:41;;;;;;;30.77;20.90;;;8.50;44.40;;;;;;5046729;28;20470;-60
2022/10/01 04:30:10;;;;;;;34.67;21.23;;;8.40;44.30;;;;;;5039213;28;20485;-60
2022/10/01 04:32:38;;;;;;;32.57;20.80;;;8.50;44.60;;;;;;5037373;28;20469;-61
2022/10/01 04:35:06;;;;;;;31.10;20.20;;;8.50;44.50;;;;;;5045781;28;20517;-61
2022/10/01 04:37:33;;;;;;;31.93;20.57;;;8.50;44.50;;;;;;5043600;28;20469;-60
2022/10/01 04:39:59;;;;;;;33.40;20.33;;;8.50;44.50;;;;;;5038285;28;20492;-60
2022/10/01 04:42:26;;;;;;;33.67;21.70;;;8.50;44.60;;;;;;5040731;28;20474;-60
2022/10/01 04:44:53;;;;;;;29.23;20.47;;;8.50;44.60;;;;;;5044800;28;20489;-61
2022/10/01 04:47:21;;;;;;;34.03;21.17;;;8.60;44.60;;;;;;5040005;28;21253;-61
2022/10/01 04:49:48;;;;;;;28.57;18.00;;;8.60;44.60;;;;;;5046551;28;20486;-60
2022/10/01 04:52:15;;;;;;;38.00;22.00;;;8.60;44.60;;;;;;5047572;28;20486;-60
2022/10/01 04:54:41;;;;;;;33.63;20.70;;;8.60;44.90;;;;;;5042058;28;20469;-60
2022/10/01 04:57:08;;;;;;;31.07;20.57;;;8.70;45.10;;;;;;5044128;28;20465;-61
2022/10/01 04:59:35;;;;;;;34.30;20.83;;;8.70;45.20;;;;;;5038516;28;21216;-61
2022/10/01 05:02:02;;;;;;;29.27;19.10;;;8.70;45.10;;;;;;5037264;28;20474;-60
2022/10/01 05:04:30;;;;;;;31.17;19.20;;;8.80;45.20;;;;;;5044110;28;20740;-61
2022/10/01 05:06:56;;;;;;;32.80;19.70;;;8.80;45.10;;;;;;5044778;28;20466;-60
2022/10/01 05:09:23;;;;;;;28.43;19.97;;;8.70;45.10;;;;;;5042458;28;20608;-60
2022/10/01 05:11:51;;;;;;;29.93;20.57;;;8.80;44.80;;;;;;5046981;28;20513;-60
2022/10/01 05:14:20;;;;;;;30.00;20.23;;;8.80;44.70;;;;;;5040886;28;20461;-60
2022/10/01 05:16:47;;;;;;;30.63;20.33;;;8.80;44.80;;;;;;5041807;28;20988;-61
2022/10/01 05:19:14;;;;;;;30.10;19.17;;;8.80;44.90;;;;;;5036551;28;20485;-60
2022/10/01 05:21:42;;;;;;;32.97;20.97;;;8.90;45.00;;;;;;5038666;28;20455;-60
2022/10/01 05:24:09;;;;;;;32.87;21.33;;;8.90;45.00;;;;;;5038034;28;20459;-60
2022/10/01 05:26:38;;;;;;;34.97;22.20;;;8.90;45.40;;;;;;5043432;28;20458;-60
2022/10/01 05:29:05;;;;;;;29.90;20.10;;;9.00;45.60;;;;;;5042033;28;20473;-60
2022/10/01 05:31:33;;;;;;;32.63;21.20;;;9.00;45.70;;;;;;5038835;28;20482;-60
2022/10/01 05:33:59;;;;;;;32.17;20.57;;;9.10;45.90;;;;;;5042449;28;21001;-60
2022/10/01 05:36:26;;;;;;;29.20;19.27;;;9.10;45.80;;;;;;5037241;28;21065;-60
2022/10/01 05:38:54;;;;;;;31.30;20.23;;;9.20;45.90;;;;;;5039810;28;20499;-61
2022/10/01 05:41:21;;;;;;;31.00;20.20;;;9.20;45.80;;;;;;5041755;28;20473;-60
2022/10/01 05:43:48;;;;;;;31.03;20.30;;;9.30;45.90;;;;;;5044524;28;20985;-61
2022/10/01 05:46:15;;;;;;;30.30;20.37;;;9.30;46.00;;;;;;5046098;28;20461;-60
2022/10/01 05:48:42;;;;;;;28.93;19.37;;;9.30;46.00;;;;;;5040560;28;20474;-60
2022/10/01 05:51:09;;;;;;;29.40;18.93;;;9.40;45.90;;;;;;5039472;28;20513;-60
2022/10/01 05:53:37;;;;;;;26.70;18.70;;;9.40;46.00;;;;;;5042588;28;20466;-60
2022/10/01 05:56:06;;;;;;;32.33;19.83;;;9.40;46.00;;;;;;5042388;28;20462;-61
2022/10/01 05:58:32;;;;;;;27.23;19.00;;;9.40;45.90;;;;;;5043865;28;20458;-61
2022/10/01 06:00:59;;;;;;;30.17;19.30;;;9.50;45.90;;;;;;5034129;28;20470;-60
2022/10/01 06:03:27;;;;;;;31.07;20.30;;;9.50;46.00;;;;;;5041181;28;20545;-61
2022/10/01 06:05:55;;;;;;;28.70;20.30;;;9.60;45.90;;;;;;5043267;28;20886;-60
2022/10/01 06:08:21;;;;;;;27.07;19.50;;;9.60;45.70;;;;;;5042755;28;20455;-60
2022/10/01 06:10:48;;;;;;;29.80;18.23;;;9.60;45.50;;;;;;5045782;28;20458;-60
2022/10/01 06:13:17;;;;;;;26.30;17.23;;;9.60;45.80;;;;;;5044775;28;20923;-61
2022/10/01 06:15:45;;;;;;;26.50;18.00;;;9.70;45.80;;;;;;5043576;28;20461;-61
2022/10/01 06:18:13;;;;;;;26.17;17.47;;;9.70;45.80;;;;;;5035854;28;20463;-61
2022/10/01 06:20:40;;;;;;;23.90;17.30;;;9.80;45.80;;;;;;5041677;28;20467;-61
2022/10/01 06:23:11;;;;;;;24.40;17.10;;;9.80;45.60;;;;;;5044339;28;20464;-61
2022/10/01 06:25:38;;;;;;;24.00;17.73;;;9.80;45.60;;;;;;5041968;28;20454;-61
2022/10/01 06:28:08;;;;;;;24.43;17.00;;;9.90;45.40;;;;;;5044037;28;20465;-61
2022/10/01 06:30:38;;;;;;;24.37;16.93;;;9.90;45.40;;;;;;5042783;28;20477;-60
2022/10/01 06:33:07;;;;;;;19.97;14.77;;;10.00;45.10;;;;;;5039678;28;20492;-60
2022/10/01 06:35:35;;;;;;;21.07;15.90;;;10.00;44.90;;;;;;5039187;28;20873;-61
2022/10/01 06:38:03;;;;;;;21.90;16.20;;;10.10;45.00;;;;;;5040401;28;20457;-60
2022/10/01 06:40:31;;;;;;;20.90;14.77;;;10.10;44.70;;;;;;5044670;28;20486;-61
2022/10/01 06:42:58;;;;;;;25.23;16.67;;;10.10;45.20;;;;;;5041674;28;20450;-60
2022/10/01 06:45:25;;;;;;;21.00;14.90;;;10.20;44.30;;;;;;5044189;28;20461;-60
2022/10/01 06:48:01;;;;;;;20.47;14.50;;;10.20;44.30;;;;;;5042807;28;20513;-60
2022/10/01 06:50:28;;;;;;;20.67;15.20;;;10.20;44.20;;;;;;5040919;28;20485;-61
2022/10/01 06:52:55;;;;;;;22.00;15.67;;;10.20;44.10;;;;;;5043272;28;20994;-60
2022/10/01 06:55:25;;;;;;;19.90;14.30;;;10.30;43.80;;;;;;5038368;28;20458;-60
2022/10/01 06:57:54;;;;;;;20.80;14.70;;;10.30;43.70;;;;;;5041011;28;20515;-60
2022/10/01 07:00:22;;;;;;;20.00;14.00;;;10.40;43.50;;;;;;5034335;28;20489;-61
2022/10/01 07:02:48;;;;;;;18.07;13.63;;;10.40;43.20;;;;;;5041065;28;20474;-60
2022/10/01 07:05:17;;;;;;;17.57;13.43;;;10.40;43.30;;;;;;5038532;28;20469;-60
2022/10/01 07:07:44;;;;;;;17.67;13.67;;;10.50;43.20;;;;;;5047060;28;21000;-60
2022/10/01 07:10:12;;;;;;;19.00;13.97;;;10.50;43.30;;;;;;5045244;28;20487;-60
2022/10/01 07:12:39;;;;;;;20.00;13.53;;;10.50;43.10;;;;;;5043355;28;20478;-60
2022/10/01 07:15:07;;;;;;;16.13;11.97;;;10.50;43.10;;;;;;5042059;28;21013;-60
2022/10/01 07:17:34;;;;;;;18.37;14.03;;;10.50;43.20;;;;;;5047794;28;20458;-60
2022/10/01 07:20:01;;;;;;;16.27;12.17;;;10.60;43.30;;;;;;5046216;28;21387;-60
2022/10/01 07:22:29;;;;;;;18.10;13.40;;;10.60;43.40;;;;;;5048063;28;20900;-60
2022/10/01 07:24:56;;;;;;;15.30;11.63;;;10.60;43.10;;;;;;5044351;28;20458;-60
2022/10/01 07:27:23;;;;;;;15.97;11.33;;;10.70;43.00;;;;;;5041664;28;20464;-60
2022/10/01 07:29:49;;;;;;;15.07;10.93;;;10.70;43.00;;;;;;5045413;28;20468;-60
2022/10/01 07:32:16;;;;;;;15.67;11.27;;;10.70;42.90;;;;;;5041585;28;21020;-60
2022/10/01 07:34:43;;;;;;;14.43;10.50;;;10.70;42.90;;;;;;5044181;28;20469;-60
2022/10/01 07:37:10;;;;;;;16.27;11.40;;;10.70;42.80;;;;;;5042452;28;20473;-60
2022/10/01 07:39:38;;;;;;;13.33;10.20;;;10.80;42.40;;;;;;5039831;28;21017;-60
2022/10/01 07:42:05;;;;;;;15.20;10.83;;;10.80;42.30;;;;;;5047085;28;20462;-60
2022/10/01 07:44:32;;;;;;;12.87;9.90;;;10.90;42.20;;;;;;5041569;28;21009;-60
2022/10/01 07:46:59;;;;;;;12.47;9.30;;;10.90;42.10;;;;;;5045073;28;21205;-60
2022/10/01 07:49:26;;;;;;;11.50;8.53;;;10.90;42.00;;;;;;5040831;28;20478;-60
2022/10/01 07:51:54;;;;;;;10.83;8.47;;;10.90;41.20;;;;;;5040357;28;20489;-59
2022/10/01 07:54:21;;;;;;;11.20;7.87;;;10.90;41.00;;;;;;5049597;28;20531;-59
2022/10/01 07:56:54;;;;;;;11.40;7.97;;;10.90;41.00;;;;;;5038850;28;20466;-60
2022/10/01 07:59:21;;;;;;;11.73;8.83;;;10.90;40.80;;;;;;5042793;28;20496;-60
2022/10/01 08:01:50;;;;;;;12.30;9.10;;;11.00;40.60;;;;;;5037281;28;20482;-60
2022/10/01 08:07:01;;;;;;;13.20;8.80;;;11.10;40.20;;;;;;5035632;28;20453;-60
2022/10/01 08:09:29;;;;;;;13.70;8.70;;;11.10;40.10;;;;;;5040409;28;20482;-60
2022/10/01 08:11:57;;;;;;;12.20;8.57;;;11.10;40.00;;;;;;5044786;28;20879;-60
2022/10/01 08:14:25;;;;;;;11.10;8.60;;;11.20;39.90;;;;;;5035083;28;20465;-60
2022/10/01 08:16:54;;;;;;;12.30;9.00;;;11.30;39.90;;;;;;5043141;28;21194;-59
2022/10/01 08:19:21;;;;;;;12.00;9.07;;;11.30;39.90;;;;;;5038350;28;20489;-60
2022/10/01 08:21:48;;;;;;;10.80;8.20;;;11.40;39.90;;;;;;5043219;28;20465;-60
2022/10/01 08:24:15;;;;;;;12.53;9.50;;;11.40;39.60;;;;;;5042791;28;20466;-59
2022/10/01 08:26:41;;;;;;;12.50;8.60;;;11.50;39.30;;;;;;5042234;28;20465;-59
2022/10/01 08:29:09;;;;;;;11.23;7.43;;;11.60;39.60;;;;;;5040037;28;20485;-60
2022/10/01 08:31:36;;;;;;;11.80;8.07;;;11.60;38.60;;;;;;5039549;28;20478;-60
2022/10/01 08:34:03;;;;;;;9.80;7.40;;;11.60;38.30;;;;;;5036645;28;20477;-59
2022/10/01 08:36:30;;;;;;;9.30;7.20;;;11.70;38.10;;;;;;5037670;28;21201;-60
2022/10/01 08:38:56;;;;;;;20.83;6.90;;;11.70;38.00;;;;;;5041392;28;21205;-60
2022/10/01 08:41:33;;;;;;;9.97;6.50;;;11.70;37.70;;;;;;5040865;28;20466;-61
2022/10/01 08:44:02;;;;;;;10.13;6.00;;;11.70;37.70;;;;;;5034579;28;20458;-61
2022/10/01 08:46:34;;;;;;;8.10;5.47;;;11.80;37.60;;;;;;5039629;28;20454;-61
2022/10/01 08:49:08;;;;;;;9.33;5.90;;;11.70;37.40;;;;;;5033042;28;20482;-59
2022/10/01 08:51:39;;;;;;;9.17;4.63;;;11.70;37.40;;;;;;5041817;28;20476;-59
2022/10/01 08:54:16;;;;;;;10.37;5.60;;;11.80;37.40;;;;;;5041308;28;20462;-59
2022/10/01 08:56:46;;;;;;;7.40;5.00;;;11.70;37.00;;;;;;5041262;28;20465;-59
2022/10/01 08:59:24;;;;;;;7.80;4.90;;;11.70;37.00;;;;;;5040982;28;20486;-58
2022/10/01 09:01:54;;;;;;;7.30;4.40;;;11.70;36.80;;;;;;5030854;28;21026;-58
2022/10/01 09:04:20;;;;;;;8.00;4.07;;;11.70;36.40;;;;;;5036291;28;20459;-58
2022/10/01 09:06:56;;;;;;;6.30;3.93;;;11.60;36.40;;;;;;5034436;28;20997;-58
2022/10/01 09:09:38;;;;;;;6.60;3.77;;;11.60;36.60;;;;;;5033871;28;20479;-58
2022/10/01 09:12:22;;;;;;;8.10;4.30;;;11.60;36.60;;;;;;5038878;28;20485;-58
2022/10/01 09:15:00;;;;;;;7.40;3.17;;;11.60;36.50;;;;;;5034485;28;20471;-58
2022/10/01 09:17:43;;;;;;;6.70;3.50;;;11.60;36.50;;;;;;5034627;28;20471;-58
2022/10/01 09:20:18;;;;;;;6.50;3.17;;;11.60;36.40;;;;;;5037142;28;20478;-58
2022/10/01 09:22:52;;;;;;;7.80;4.20;;;11.50;36.40;;;;;;5035637;28;20486;-58
2022/10/01 09:25:23;;;;;;;6.10;3.13;;;11.50;36.00;;;;;;5037685;28;20461;-58
2022/10/01 09:27:51;;;;;;;6.00;2.40;;;11.50;36.30;;;;;;5038554;28;20496;-58
2022/10/01 09:30:20;;;;;;;7.40;3.20;;;11.50;36.70;;;;;;5036105;28;20995;-58
2022/10/01 09:32:53;;;;;;;6.27;3.07;;;11.50;37.00;;;;;;5032100;28;20482;-58
2022/10/01 09:35:37;;;;;;;7.10;2.87;;;11.60;36.80;;;;;;5040810;28;20466;-58
2022/10/01 09:38:11;;;;;;;7.10;2.87;;;11.60;36.50;;;;;;5034166;28;20474;-58
2022/10/01 09:40:46;;;;;;;5.77;2.50;;;11.60;36.10;;;;;;5043372;28;20481;-58
2022/10/01 09:43:13;;;;;;;5.33;2.57;;;11.60;36.20;;;;;;5044616;28;20457;-58
2022/10/01 09:45:40;;;;;;;6.00;2.57;;;11.70;35.90;;;;;;5041784;28;20466;-58
2022/10/01 09:48:21;;;;;;;4.47;2.10;;;11.70;36.10;;;;;;5038672;28;20466;-58
2022/10/01 09:50:55;;;;;;;6.67;2.80;;;11.70;36.50;;;;;;5036525;28;20463;-58
2022/10/01 09:53:27;;;;;;;4.80;2.37;;;11.70;36.20;;;;;;5036699;28;20486;-58
2022/10/01 09:55:58;;;;;;;5.10;2.27;;;11.70;36.00;;;;;;5035286;28;20990;-58
2022/10/01 09:58:27;;;;;;;5.40;2.50;;;11.80;35.60;;;;;;5037174;28;20470;-58
2022/10/01 10:00:55;;;;;;;5.70;2.10;;;11.80;35.60;;;;;;5034326;28;20479;-58
2022/10/01 10:03:27;;;;;;;5.17;1.93;;;11.80;35.80;;;;;;5034769;28;20463;-58
2022/10/01 10:05:54;;;;;;;4.90;1.77;;;11.80;35.50;;;;;;5035075;28;20470;-58
2022/10/01 10:08:27;;;;;;;4.67;2.07;;;11.80;35.50;;;;;;5037196;28;20458;-59
2022/10/01 10:10:59;;;;;;;4.93;1.80;;;11.80;35.40;;;;;;5040745;28;20483;-58
2022/10/01 10:13:33;;;;;;;5.10;1.50;;;11.80;35.00;;;;;;5041627;28;20482;-58
2022/10/01 10:16:07;;;;;;;4.00;1.43;;;11.80;34.40;;;;;;5038715;28;20519;-58
2022/10/01 10:18:38;;;;;;;4.90;2.20;;;11.70;34.50;;;;;;5033699;28;21004;-58
2022/10/01 10:21:07;;;;;;;4.20;1.70;;;11.70;34.60;;;;;;5045852;28;20449;-58
2022/10/01 10:23:34;;;;;;;6.50;1.70;;;11.70;34.80;;;;;;5036982;28;20830;-58
2022/10/01 10:26:04;;;;;;;4.57;1.57;;;11.70;35.00;;;;;;5040521;28;20462;-58
2022/10/01 10:28:41;;;;;;;3.90;1.50;;;11.70;35.10;;;;;;5038846;28;20485;-64
2022/10/01 10:31:13;;;;;;;4.00;1.50;;;11.70;34.90;;;;;;5038017;28;20474;-59
2022/10/01 10:33:49;;;;;;;6.50;2.07;;;11.70;35.10;;;;;;5040785;28;20474;-58
2022/10/01 10:36:18;;;;;;;4.50;1.90;;;11.70;35.10;;;;;;5035117;28;20471;-59
2022/10/01 10:38:48;;;;;;;4.57;2.13;;;11.70;34.90;;;;;;5035951;28;20498;-59
2022/10/01 10:41:18;;;;;;;8.23;2.57;;;11.60;35.10;;;;;;5032113;28;20595;-58
2022/10/01 10:43:48;;;;;;;5.87;2.20;;;11.70;35.30;;;;;;5036786;28;21016;-58
2022/10/01 10:46:22;;;;;;;5.03;2.03;;;11.70;35.60;;;;;;5034505;28;20571;-58
2022/10/01 10:48:57;;;;;;;4.47;2.13;;;11.70;35.70;;;;;;5037884;28;21238;-58
2022/10/01 10:51:26;;;;;;;4.50;1.93;;;11.70;35.70;;;;;;5035755;28;20527;-58
2022/10/01 10:53:53;;;;;;;5.07;2.30;;;11.70;35.40;;;;;;5041797;28;20513;-58
2022/10/01 10:56:22;;;;;;;5.03;2.80;;;11.70;35.10;;;;;;5032999;28;20462;-58
2022/10/01 10:58:50;;;;;;;4.53;2.20;;;11.70;35.30;;;;;;5038273;28;20867;-58
2022/10/01 11:01:19;;;;;;;5.73;2.20;;;11.70;35.40;;;;;;5038271;28;20551;-58
2022/10/01 11:03:52;;;;;;;6.57;2.73;;;11.80;35.20;;;;;;5040717;28;20462;-58
2022/10/01 11:06:20;;;;;;;6.80;2.40;;;11.80;35.50;;;;;;5039733;28;20466;-58
2022/10/01 11:08:55;;;;;;;5.30;2.70;;;11.80;35.60;;;;;;5038591;28;20490;-58
2022/10/01 11:11:38;;;;;;;4.90;2.30;;;11.80;35.40;;;;;;5043493;28;20458;-58
2022/10/01 11:14:19;;;;;;;5.30;2.23;;;11.80;35.80;;;;;;5036603;28;20508;-58
2022/10/01 11:16:59;;;;;;;5.40;2.53;;;11.70;35.80;;;;;;5045330;28;20458;-58
2022/10/01 11:19:43;;;;;;;4.90;2.57;;;11.80;35.70;;;;;;5036909;28;20477;-58
2022/10/01 11:22:22;;;;;;;5.03;2.50;;;11.80;36.00;;;;;;5035479;28;20469;-58
2022/10/01 11:25:13;;;;;;;6.10;3.00;;;11.80;36.00;;;;;;5039900;28;20464;-59
2022/10/01 11:27:48;;;;;;;8.00;2.57;;;11.80;36.10;;;;;;5036655;28;21433;-59
2022/10/01 11:30:20;;;;;;;5.93;2.77;;;11.80;36.30;;;;;;5041927;28;21300;-59
2022/10/01 11:33:02;;;;;;;4.73;2.23;;;11.80;36.50;;;;;;5038891;28;20473;-59
2022/10/01 11:35:49;;;;;;;5.57;2.70;;;11.90;36.50;;;;;;5037756;28;20457;-59
2022/10/01 11:38:40;;;;;;;5.00;2.30;;;11.90;36.20;;;;;;5042249;28;20463;-60
2022/10/01 11:41:31;;;;;;;4.80;2.40;;;11.90;36.10;;;;;;5038820;28;20469;-59
2022/10/01 11:44:05;;;;;;;4.83;2.30;;;12.00;35.80;;;;;;5041777;28;21818;-58
2022/10/01 11:46:52;;;;;;;4.47;1.80;;;12.00;35.70;;;;;;5036051;28;20478;-59
2022/10/01 11:49:40;;;;;;;5.07;2.50;;;12.10;35.40;;;;;;5031059;28;21062;-59
2022/10/01 11:52:16;;;;;;;4.87;2.03;;;12.10;35.20;;;;;;5044513;28;20458;-58
2022/10/01 11:54:55;;;;;;;6.80;2.40;;;12.10;35.40;;;;;;5042631;28;20865;-58
2022/10/01 12:00:22;;;;;;;5.50;2.03;;;12.10;35.20;;;;;;4978375;28;20469;-58
2022/10/01 12:02:56;;;;;;;5.70;2.13;;;12.20;35.00;;;;;;4977013;28;21087;-58
2022/10/01 12:05:27;;;;;;;5.93;3.07;;;12.20;35.20;;;;;;5007630;28;20477;-59
2022/10/01 12:07:59;;;;;;;4.40;1.70;;;12.20;35.10;;;;;;5043002;28;20457;-58
2022/10/01 12:10:37;;;;;;;4.60;1.80;;;12.20;35.10;;;;;;5034926;28;20620;-59
2022/10/01 12:13:13;;;;;;;4.60;2.23;;;12.20;35.30;;;;;;5040594;28;20482;-59
2022/10/01 12:15:45;;;;;;;4.93;1.93;;;12.20;35.30;;;;;;5037445;28;21020;-58
2022/10/01 12:18:20;;;;;;;5.03;2.07;;;12.20;35.20;;;;;;5040391;28;20839;-59
2022/10/01 12:20:49;;;;;;;4.80;1.80;;;12.20;35.10;;;;;;5038392;28;20469;-58
2022/10/01 12:23:22;;;;;;;4.10;1.70;;;12.20;34.90;;;;;;5040906;28;20454;-59
2022/10/01 12:25:57;;;;;;;4.77;1.80;;;12.30;34.80;;;;;;5039893;28;21000;-59
2022/10/01 12:28:31;;;;;;;4.20;1.57;;;12.30;34.70;;;;;;5034597;28;20462;-58
2022/10/01 12:31:03;;;;;;;4.67;1.63;;;12.30;34.80;;;;;;5037573;28;20485;-58
2022/10/01 12:33:52;;;;;;;5.87;2.23;;;12.20;34.90;;;;;;5036461;28;20474;-58
2022/10/01 12:36:28;;;;;;;4.57;1.80;;;12.20;35.00;;;;;;5034275;28;20566;-58
2022/10/01 12:39:15;;;;;;;10.50;4.10;;;12.30;35.30;;;;;;5041446;28;20501;-59
2022/10/01 12:41:51;;;;;;;7.13;2.50;;;12.30;35.40;;;;;;5039651;28;20976;-58
2022/10/01 12:44:37;;;;;;;4.80;1.90;;;12.30;35.30;;;;;;5036505;28;20455;-57
2022/10/01 12:47:25;;;;;;;4.57;1.70;;;12.30;35.10;;;;;;5038755;28;20974;-58
2022/10/01 12:50:03;;;;;;;4.40;1.77;;;12.40;35.20;;;;;;5040662;28;20489;-60
2022/10/01 12:52:39;;;;;;;4.57;1.80;;;12.40;34.90;;;;;;5041939;28;20458;-60
2022/10/01 12:55:21;;;;;;;3.97;1.70;;;12.40;34.70;;;;;;5039360;28;20488;-60
2022/10/01 12:57:58;;;;;;;4.53;1.67;;;12.40;34.70;;;;;;5035045;28;20459;-60
2022/10/01 13:00:27;;;;;;;5.73;2.27;;;12.40;35.00;;;;;;5038851;28;20489;-60
2022/10/01 13:03:17;;;;;;;5.47;3.20;;;12.50;35.10;;;;;;5035785;28;20835;-60
2022/10/01 13:05:57;;;;;;;7.43;2.63;;;12.50;35.00;;;;;;5040460;28;20485;-59